sensor_id;sensor_type;location;lat;lon;timestamp;P1;durP1;ratioP1;P2;durP2;ratioP2
76344;SDS011;65160;50.504;3.666;2023-01-04T00:00:07;9.85;;;3.17;;
76344;SDS011;65160;50.504;3.666;2023-01-04T00:02:33;6.57;;;2.90;;
76344;SDS011;65160;50.504;3.666;2023-01-04T00:04:59;5.53;;;2.70;;
76344;SDS011;65160;50.504;3.666;2023-01-04T00:07:24;6.88;;;2.75;;
76344;SDS011;65160;50.504;3.666;2023-01-04T00:09:50;7.75;;;2.97;;
76344;SDS011;65160;50.504;3.666;2023-01-04T00:12:15;6.93;;;2.80;;
76344;SDS011;65160;50.504;3.666;2023-01-04T00:14:41;8.82;;;2.80;;
76344;SDS011;65160;50.504;3.666;2023-01-04T00:17:06;9.68;;;2.78;;
76344;SDS011;65160;50.504;3.666;2023-01-04T00:19:32;5.90;;;2.60;;
76344;SDS011;65160;50.504;3.666;2023-01-04T00:21:57;7.45;;;2.70;;
76344;SDS011;65160;50.504;3.666;2023-01-04T00:24:23;7.63;;;2.42;;
76344;SDS011;65160;50.504;3.666;2023-01-04T00:26:48;6.70;;;2.38;;
76344;SDS011;65160;50.504;3.666;2023-01-04T00:29:13;7.28;;;2.78;;
76344;SDS011;65160;50.504;3.666;2023-01-04T00:31:39;5.40;;;2.58;;
76344;SDS011;65160;50.504;3.666;2023-01-04T00:34:05;6.53;;;2.80;;
76344;SDS011;65160;50.504;3.666;2023-01-04T00:36:31;6.00;;;2.42;;
76344;SDS011;65160;50.504;3.666;2023-01-04T00:38:58;5.68;;;2.22;;
76344;SDS011;65160;50.504;3.666;2023-01-04T00:44:01;7.30;;;2.25;;
76344;SDS011;65160;50.504;3.666;2023-01-04T00:46:28;9.15;;;2.80;;
76344;SDS011;65160;50.504;3.666;2023-01-04T00:48:54;6.47;;;2.97;;
76344;SDS011;65160;50.504;3.666;2023-01-04T00:51:20;7.50;;;3.30;;
76344;SDS011;65160;50.504;3.666;2023-01-04T00:53:45;5.72;;;3.17;;
76344;SDS011;65160;50.504;3.666;2023-01-04T00:56:11;8.43;;;3.30;;
76344;SDS011;65160;50.504;3.666;2023-01-04T00:58:36;7.85;;;3.17;;
76344;SDS011;65160;50.504;3.666;2023-01-04T01:01:05;7.57;;;3.13;;
76344;SDS011;65160;50.504;3.666;2023-01-04T01:03:31;9.57;;;3.55;;
76344;SDS011;65160;50.504;3.666;2023-01-04T01:06:06;8.75;;;3.78;;
76344;SDS011;65160;50.504;3.666;2023-01-04T01:08:32;7.88;;;3.22;;
76344;SDS011;65160;50.504;3.666;2023-01-04T01:11:05;6.93;;;3.58;;
76344;SDS011;65160;50.504;3.666;2023-01-04T01:13:32;9.88;;;3.50;;
76344;SDS011;65160;50.504;3.666;2023-01-04T01:16:18;7.28;;;3.22;;
76344;SDS011;65160;50.504;3.666;2023-01-04T01:18:45;8.00;;;2.65;;
76344;SDS011;65160;50.504;3.666;2023-01-04T01:21:12;10.32;;;3.60;;
76344;SDS011;65160;50.504;3.666;2023-01-04T01:23:40;6.95;;;2.80;;
76344;SDS011;65160;50.504;3.666;2023-01-04T01:26:06;8.75;;;4.07;;
76344;SDS011;65160;50.504;3.666;2023-01-04T01:28:34;5.72;;;2.50;;
76344;SDS011;65160;50.504;3.666;2023-01-04T01:31:10;10.38;;;3.13;;
76344;SDS011;65160;50.504;3.666;2023-01-04T01:33:38;7.20;;;2.55;;
76344;SDS011;65160;50.504;3.666;2023-01-04T01:36:06;10.43;;;3.00;;
76344;SDS011;65160;50.504;3.666;2023-01-04T01:38:32;8.77;;;2.90;;
76344;SDS011;65160;50.504;3.666;2023-01-04T01:40:58;8.38;;;3.38;;
76344;SDS011;65160;50.504;3.666;2023-01-04T01:46:15;6.15;;;2.83;;
76344;SDS011;65160;50.504;3.666;2023-01-04T01:48:45;7.38;;;3.38;;
76344;SDS011;65160;50.504;3.666;2023-01-04T01:51:11;7.55;;;3.80;;
76344;SDS011;65160;50.504;3.666;2023-01-04T01:53:40;4.85;;;2.15;;
76344;SDS011;65160;50.504;3.666;2023-01-04T01:56:12;7.95;;;3.30;;
76344;SDS011;65160;50.504;3.666;2023-01-04T01:58:42;8.38;;;3.33;;
76344;SDS011;65160;50.504;3.666;2023-01-04T02:01:10;6.35;;;2.75;;
76344;SDS011;65160;50.504;3.666;2023-01-04T02:03:38;8.45;;;2.60;;
76344;SDS011;65160;50.504;3.666;2023-01-04T02:06:05;8.20;;;2.72;;
76344;SDS011;65160;50.504;3.666;2023-01-04T02:08:34;5.53;;;2.45;;
76344;SDS011;65160;50.504;3.666;2023-01-04T02:11:01;9.20;;;3.03;;
76344;SDS011;65160;50.504;3.666;2023-01-04T02:13:28;7.63;;;2.67;;
76344;SDS011;65160;50.504;3.666;2023-01-04T02:28:19;6.78;;;2.00;;
76344;SDS011;65160;50.504;3.666;2023-01-04T02:31:04;9.82;;;2.30;;
76344;SDS011;65160;50.504;3.666;2023-01-04T02:36:40;7.07;;;2.20;;
76344;SDS011;65160;50.504;3.666;2023-01-04T02:42:15;4.93;;;2.28;;
76344;SDS011;65160;50.504;3.666;2023-01-04T02:45:18;6.40;;;2.45;;
76344;SDS011;65160;50.504;3.666;2023-01-04T02:47:48;5.13;;;2.22;;
76344;SDS011;65160;50.504;3.666;2023-01-04T02:50:49;5.07;;;2.38;;
76344;SDS011;65160;50.504;3.666;2023-01-04T02:53:24;6.88;;;2.53;;
76344;SDS011;65160;50.504;3.666;2023-01-04T02:56:03;8.75;;;2.30;;
76344;SDS011;65160;50.504;3.666;2023-01-04T03:01:39;8.98;;;2.97;;
76344;SDS011;65160;50.504;3.666;2023-01-04T03:07:52;10.88;;;2.38;;
76344;SDS011;65160;50.504;3.666;2023-01-04T03:13:05;7.88;;;2.58;;
76344;SDS011;65160;50.504;3.666;2023-01-04T03:15:45;7.78;;;2.17;;
76344;SDS011;65160;50.504;3.666;2023-01-04T03:18:28;6.13;;;2.30;;
76344;SDS011;65160;50.504;3.666;2023-01-04T03:21:04;8.18;;;1.65;;
76344;SDS011;65160;50.504;3.666;2023-01-04T03:23:34;4.95;;;1.90;;
76344;SDS011;65160;50.504;3.666;2023-01-04T03:26:29;5.82;;;2.25;;
76344;SDS011;65160;50.504;3.666;2023-01-04T03:32:46;3.92;;;2.03;;
76344;SDS011;65160;50.504;3.666;2023-01-04T03:35:45;7.68;;;2.50;;
76344;SDS011;65160;50.504;3.666;2023-01-04T03:38:51;8.50;;;2.85;;
76344;SDS011;65160;50.504;3.666;2023-01-04T03:42:44;7.82;;;2.25;;
76344;SDS011;65160;50.504;3.666;2023-01-04T03:45:05;4.47;;;1.88;;
76344;SDS011;65160;50.504;3.666;2023-01-04T03:48:02;5.60;;;2.00;;
76344;SDS011;65160;50.504;3.666;2023-01-04T03:50:48;6.05;;;2.20;;
76344;SDS011;65160;50.504;3.666;2023-01-04T03:53:18;9.68;;;2.30;;
76344;SDS011;65160;50.504;3.666;2023-01-04T03:55:44;6.68;;;2.33;;
76344;SDS011;65160;50.504;3.666;2023-01-04T03:58:12;6.63;;;2.47;;
76344;SDS011;65160;50.504;3.666;2023-01-04T04:00:38;5.85;;;2.30;;
76344;SDS011;65160;50.504;3.666;2023-01-04T04:03:04;5.35;;;1.95;;
76344;SDS011;65160;50.504;3.666;2023-01-04T04:05:36;6.97;;;2.63;;
76344;SDS011;65160;50.504;3.666;2023-01-04T04:08:21;5.28;;;1.90;;
76344;SDS011;65160;50.504;3.666;2023-01-04T04:10:53;6.88;;;2.38;;
76344;SDS011;65160;50.504;3.666;2023-01-04T04:13:21;7.40;;;2.42;;
76344;SDS011;65160;50.504;3.666;2023-01-04T04:15:47;4.65;;;1.88;;
76344;SDS011;65160;50.504;3.666;2023-01-04T04:18:12;3.90;;;1.80;;
76344;SDS011;65160;50.504;3.666;2023-01-04T04:20:38;5.20;;;1.67;;
76344;SDS011;65160;50.504;3.666;2023-01-04T04:23:04;4.70;;;1.73;;
76344;SDS011;65160;50.504;3.666;2023-01-04T04:25:30;4.43;;;1.95;;
76344;SDS011;65160;50.504;3.666;2023-01-04T04:27:55;5.72;;;2.03;;
76344;SDS011;65160;50.504;3.666;2023-01-04T04:30:21;4.30;;;1.90;;
76344;SDS011;65160;50.504;3.666;2023-01-04T04:32:46;4.47;;;1.73;;
76344;SDS011;65160;50.504;3.666;2023-01-04T04:35:11;8.90;;;2.00;;
76344;SDS011;65160;50.504;3.666;2023-01-04T04:37:37;8.70;;;1.92;;
76344;SDS011;65160;50.504;3.666;2023-01-04T04:40:03;4.13;;;1.98;;
76344;SDS011;65160;50.504;3.666;2023-01-04T04:42:29;5.88;;;2.72;;
76344;SDS011;65160;50.504;3.666;2023-01-04T04:44:55;8.32;;;1.80;;
76344;SDS011;65160;50.504;3.666;2023-01-04T04:47:20;4.95;;;2.10;;
76344;SDS011;65160;50.504;3.666;2023-01-04T04:49:46;4.13;;;1.88;;
76344;SDS011;65160;50.504;3.666;2023-01-04T04:52:11;6.78;;;1.73;;
76344;SDS011;65160;50.504;3.666;2023-01-04T04:54:37;5.18;;;1.63;;
76344;SDS011;65160;50.504;3.666;2023-01-04T04:57:02;4.78;;;1.58;;
76344;SDS011;65160;50.504;3.666;2023-01-04T04:59:28;5.53;;;1.40;;
76344;SDS011;65160;50.504;3.666;2023-01-04T05:01:53;4.20;;;1.42;;
76344;SDS011;65160;50.504;3.666;2023-01-04T05:04:19;6.03;;;1.90;;
76344;SDS011;65160;50.504;3.666;2023-01-04T05:06:45;4.28;;;1.50;;
76344;SDS011;65160;50.504;3.666;2023-01-04T05:09:12;5.90;;;1.65;;
76344;SDS011;65160;50.504;3.666;2023-01-04T05:11:38;5.25;;;1.73;;
76344;SDS011;65160;50.504;3.666;2023-01-04T05:14:22;6.28;;;1.73;;
76344;SDS011;65160;50.504;3.666;2023-01-04T05:16:48;6.78;;;2.05;;
76344;SDS011;65160;50.504;3.666;2023-01-04T05:19:13;5.18;;;1.60;;
76344;SDS011;65160;50.504;3.666;2023-01-04T05:21:39;4.35;;;1.80;;
76344;SDS011;65160;50.504;3.666;2023-01-04T05:24:05;3.50;;;1.52;;
76344;SDS011;65160;50.504;3.666;2023-01-04T05:26:31;6.80;;;1.80;;
76344;SDS011;65160;50.504;3.666;2023-01-04T05:28:56;4.20;;;1.65;;
76344;SDS011;65160;50.504;3.666;2023-01-04T05:31:22;6.07;;;2.25;;
76344;SDS011;65160;50.504;3.666;2023-01-04T05:33:48;5.28;;;2.10;;
76344;SDS011;65160;50.504;3.666;2023-01-04T05:36:14;6.90;;;2.20;;
76344;SDS011;65160;50.504;3.666;2023-01-04T05:38:39;4.60;;;1.77;;
76344;SDS011;65160;50.504;3.666;2023-01-04T05:41:05;5.78;;;2.05;;
76344;SDS011;65160;50.504;3.666;2023-01-04T05:43:50;5.57;;;2.50;;
76344;SDS011;65160;50.504;3.666;2023-01-04T05:46:15;7.95;;;2.33;;
76344;SDS011;65160;50.504;3.666;2023-01-04T05:48:41;4.90;;;2.00;;
76344;SDS011;65160;50.504;3.666;2023-01-04T05:51:06;6.72;;;2.00;;
76344;SDS011;65160;50.504;3.666;2023-01-04T05:53:32;3.83;;;1.77;;
76344;SDS011;65160;50.504;3.666;2023-01-04T05:55:57;4.80;;;1.77;;
76344;SDS011;65160;50.504;3.666;2023-01-04T05:58:23;5.43;;;2.00;;
76344;SDS011;65160;50.504;3.666;2023-01-04T06:00:48;3.47;;;1.45;;
76344;SDS011;65160;50.504;3.666;2023-01-04T06:03:14;5.60;;;1.70;;
76344;SDS011;65160;50.504;3.666;2023-01-04T06:05:39;4.78;;;2.40;;
76344;SDS011;65160;50.504;3.666;2023-01-04T06:08:05;6.57;;;1.70;;
76344;SDS011;65160;50.504;3.666;2023-01-04T06:10:31;4.00;;;1.65;;
76344;SDS011;65160;50.504;3.666;2023-01-04T06:12:57;6.90;;;2.38;;
76344;SDS011;65160;50.504;3.666;2023-01-04T06:15:22;7.53;;;2.10;;
76344;SDS011;65160;50.504;3.666;2023-01-04T06:17:48;4.55;;;1.60;;
76344;SDS011;65160;50.504;3.666;2023-01-04T06:20:13;5.03;;;2.10;;
76344;SDS011;65160;50.504;3.666;2023-01-04T06:22:39;6.90;;;1.70;;
76344;SDS011;65160;50.504;3.666;2023-01-04T06:25:06;4.00;;;1.67;;
76344;SDS011;65160;50.504;3.666;2023-01-04T06:27:32;5.30;;;1.70;;
76344;SDS011;65160;50.504;3.666;2023-01-04T06:29:58;4.65;;;1.50;;
76344;SDS011;65160;50.504;3.666;2023-01-04T06:32:23;4.15;;;1.52;;
76344;SDS011;65160;50.504;3.666;2023-01-04T06:34:49;3.95;;;1.50;;
76344;SDS011;65160;50.504;3.666;2023-01-04T06:37:14;4.75;;;1.58;;
76344;SDS011;65160;50.504;3.666;2023-01-04T06:39:40;6.07;;;1.40;;
76344;SDS011;65160;50.504;3.666;2023-01-04T06:42:05;3.50;;;1.45;;
76344;SDS011;65160;50.504;3.666;2023-01-04T06:44:51;2.55;;;1.10;;
76344;SDS011;65160;50.504;3.666;2023-01-04T06:47:16;7.72;;;1.90;;
76344;SDS011;65160;50.504;3.666;2023-01-04T06:49:41;5.60;;;1.63;;
76344;SDS011;65160;50.504;3.666;2023-01-04T06:52:07;2.92;;;1.23;;
76344;SDS011;65160;50.504;3.666;2023-01-04T06:54:32;5.18;;;2.25;;
76344;SDS011;65160;50.504;3.666;2023-01-04T06:56:58;4.47;;;1.65;;
76344;SDS011;65160;50.504;3.666;2023-01-04T06:59:23;3.85;;;1.35;;
76344;SDS011;65160;50.504;3.666;2023-01-04T07:01:49;4.25;;;1.67;;
76344;SDS011;65160;50.504;3.666;2023-01-04T07:04:14;4.00;;;1.45;;
76344;SDS011;65160;50.504;3.666;2023-01-04T07:06:40;3.80;;;1.30;;
76344;SDS011;65160;50.504;3.666;2023-01-04T07:09:05;4.65;;;1.50;;
76344;SDS011;65160;50.504;3.666;2023-01-04T07:11:30;4.63;;;1.42;;
76344;SDS011;65160;50.504;3.666;2023-01-04T07:13:56;3.50;;;1.45;;
76344;SDS011;65160;50.504;3.666;2023-01-04T07:16:21;10.63;;;2.30;;
76344;SDS011;65160;50.504;3.666;2023-01-04T07:18:47;5.55;;;1.98;;
76344;SDS011;65160;50.504;3.666;2023-01-04T07:21:12;4.15;;;1.52;;
76344;SDS011;65160;50.504;3.666;2023-01-04T07:23:38;4.55;;;1.40;;
76344;SDS011;65160;50.504;3.666;2023-01-04T07:26:04;3.47;;;1.55;;
76344;SDS011;65160;50.504;3.666;2023-01-04T07:28:29;4.90;;;1.30;;
76344;SDS011;65160;50.504;3.666;2023-01-04T07:31:13;3.58;;;1.35;;
76344;SDS011;65160;50.504;3.666;2023-01-04T07:33:39;4.22;;;1.35;;
76344;SDS011;65160;50.504;3.666;2023-01-04T07:36:05;4.57;;;1.52;;
76344;SDS011;65160;50.504;3.666;2023-01-04T07:38:32;4.32;;;1.50;;
76344;SDS011;65160;50.504;3.666;2023-01-04T07:40:58;4.35;;;2.30;;
76344;SDS011;65160;50.504;3.666;2023-01-04T07:43:24;6.28;;;1.60;;
76344;SDS011;65160;50.504;3.666;2023-01-04T07:45:49;3.08;;;1.33;;
76344;SDS011;65160;50.504;3.666;2023-01-04T07:48:15;4.25;;;1.70;;
76344;SDS011;65160;50.504;3.666;2023-01-04T07:50:40;5.90;;;1.38;;
76344;SDS011;65160;50.504;3.666;2023-01-04T07:53:06;5.47;;;1.77;;
76344;SDS011;65160;50.504;3.666;2023-01-04T07:55:31;7.50;;;2.10;;
76344;SDS011;65160;50.504;3.666;2023-01-04T07:57:57;6.25;;;1.60;;
76344;SDS011;65160;50.504;3.666;2023-01-04T08:00:22;4.18;;;1.65;;
76344;SDS011;65160;50.504;3.666;2023-01-04T08:02:48;4.45;;;1.60;;
76344;SDS011;65160;50.504;3.666;2023-01-04T08:05:14;5.43;;;1.73;;
76344;SDS011;65160;50.504;3.666;2023-01-04T08:07:39;5.68;;;1.90;;
76344;SDS011;65160;50.504;3.666;2023-01-04T08:10:05;3.92;;;1.40;;
76344;SDS011;65160;50.504;3.666;2023-01-04T08:12:31;4.28;;;1.38;;
76344;SDS011;65160;50.504;3.666;2023-01-04T08:14:56;4.82;;;1.30;;
76344;SDS011;65160;50.504;3.666;2023-01-04T08:17:22;5.25;;;1.30;;
76344;SDS011;65160;50.504;3.666;2023-01-04T08:19:47;5.72;;;1.45;;
76344;SDS011;65160;50.504;3.666;2023-01-04T08:22:13;4.20;;;1.70;;
76344;SDS011;65160;50.504;3.666;2023-01-04T08:24:38;4.40;;;1.30;;
76344;SDS011;65160;50.504;3.666;2023-01-04T08:27:04;5.22;;;1.33;;
76344;SDS011;65160;50.504;3.666;2023-01-04T08:29:30;4.00;;;1.20;;
76344;SDS011;65160;50.504;3.666;2023-01-04T08:31:56;2.88;;;0.95;;
76344;SDS011;65160;50.504;3.666;2023-01-04T08:34:21;4.15;;;0.85;;
76344;SDS011;65160;50.504;3.666;2023-01-04T08:36:47;4.50;;;1.40;;
76344;SDS011;65160;50.504;3.666;2023-01-04T08:39:14;4.40;;;1.83;;
76344;SDS011;65160;50.504;3.666;2023-01-04T08:41:41;4.03;;;1.65;;
76344;SDS011;65160;50.504;3.666;2023-01-04T08:44:17;3.55;;;1.25;;
76344;SDS011;65160;50.504;3.666;2023-01-04T08:46:48;6.28;;;1.33;;
76344;SDS011;65160;50.504;3.666;2023-01-04T08:49:14;3.40;;;1.10;;
76344;SDS011;65160;50.504;3.666;2023-01-04T08:51:40;4.55;;;1.08;;
76344;SDS011;65160;50.504;3.666;2023-01-04T08:54:06;5.47;;;1.27;;
76344;SDS011;65160;50.504;3.666;2023-01-04T08:56:32;2.92;;;1.10;;
76344;SDS011;65160;50.504;3.666;2023-01-04T08:58:57;5.80;;;1.50;;
76344;SDS011;65160;50.504;3.666;2023-01-04T09:01:23;3.97;;;1.20;;
76344;SDS011;65160;50.504;3.666;2023-01-04T09:03:48;7.45;;;2.63;;
76344;SDS011;65160;50.504;3.666;2023-01-04T09:06:14;3.10;;;1.20;;
76344;SDS011;65160;50.504;3.666;2023-01-04T09:08:40;2.80;;;1.02;;
76344;SDS011;65160;50.504;3.666;2023-01-04T09:11:09;4.90;;;1.50;;
76344;SDS011;65160;50.504;3.666;2023-01-04T09:13:36;7.13;;;1.30;;
76344;SDS011;65160;50.504;3.666;2023-01-04T09:16:02;4.05;;;1.27;;
76344;SDS011;65160;50.504;3.666;2023-01-04T09:18:31;5.75;;;1.00;;
76344;SDS011;65160;50.504;3.666;2023-01-04T09:20:57;6.88;;;1.35;;
76344;SDS011;65160;50.504;3.666;2023-01-04T09:23:24;6.53;;;2.13;;
76344;SDS011;65160;50.504;3.666;2023-01-04T09:25:50;6.95;;;1.55;;
76344;SDS011;65160;50.504;3.666;2023-01-04T09:28:15;5.70;;;2.10;;
76344;SDS011;65160;50.504;3.666;2023-01-04T09:30:41;8.93;;;2.28;;
76344;SDS011;65160;50.504;3.666;2023-01-04T09:33:06;6.35;;;1.17;;
76344;SDS011;65160;50.504;3.666;2023-01-04T09:35:32;6.03;;;1.42;;
76344;SDS011;65160;50.504;3.666;2023-01-04T09:37:57;4.57;;;1.30;;
76344;SDS011;65160;50.504;3.666;2023-01-04T09:40:31;3.75;;;1.58;;
76344;SDS011;65160;50.504;3.666;2023-01-04T09:43:03;4.72;;;1.48;;
76344;SDS011;65160;50.504;3.666;2023-01-04T09:45:29;7.20;;;1.70;;
76344;SDS011;65160;50.504;3.666;2023-01-04T09:48:00;7.18;;;2.17;;
76344;SDS011;65160;50.504;3.666;2023-01-04T09:50:32;4.82;;;1.52;;
76344;SDS011;65160;50.504;3.666;2023-01-04T09:53:11;5.25;;;1.33;;
76344;SDS011;65160;50.504;3.666;2023-01-04T09:55:48;3.35;;;1.20;;
76344;SDS011;65160;50.504;3.666;2023-01-04T10:01:27;6.35;;;1.50;;
76344;SDS011;65160;50.504;3.666;2023-01-04T10:06:29;6.53;;;2.10;;
76344;SDS011;65160;50.504;3.666;2023-01-04T10:08:57;3.90;;;1.17;;
76344;SDS011;65160;50.504;3.666;2023-01-04T10:14:32;6.53;;;1.40;;
76344;SDS011;65160;50.504;3.666;2023-01-04T10:25:29;3.67;;;1.52;;
76344;SDS011;65160;50.504;3.666;2023-01-04T10:33:59;5.18;;;1.20;;
76344;SDS011;65160;50.504;3.666;2023-01-04T10:36:39;4.80;;;1.55;;
76344;SDS011;65160;50.504;3.666;2023-01-04T10:39:18;4.38;;;1.50;;
76344;SDS011;65160;50.504;3.666;2023-01-04T10:42:10;4.95;;;1.45;;
76344;SDS011;65160;50.504;3.666;2023-01-04T10:50:26;3.60;;;1.50;;
76344;SDS011;65160;50.504;3.666;2023-01-04T10:56:09;4.65;;;1.58;;
76344;SDS011;65160;50.504;3.666;2023-01-04T11:07:12;3.00;;;1.30;;
76344;SDS011;65160;50.504;3.666;2023-01-04T11:12:16;5.28;;;2.13;;
76344;SDS011;65160;50.504;3.666;2023-01-04T11:14:45;4.88;;;1.60;;
76344;SDS011;65160;50.504;3.666;2023-01-04T11:17:11;5.75;;;1.60;;
76344;SDS011;65160;50.504;3.666;2023-01-04T11:19:38;6.35;;;2.13;;
76344;SDS011;65160;50.504;3.666;2023-01-04T11:22:05;7.15;;;1.73;;
76344;SDS011;65160;50.504;3.666;2023-01-04T11:24:38;6.55;;;1.40;;
76344;SDS011;65160;50.504;3.666;2023-01-04T11:27:06;9.45;;;1.63;;
76344;SDS011;65160;50.504;3.666;2023-01-04T11:32:38;6.85;;;2.00;;
76344;SDS011;65160;50.504;3.666;2023-01-04T11:35:10;10.68;;;2.10;;
76344;SDS011;65160;50.504;3.666;2023-01-04T11:37:36;4.75;;;1.50;;
76344;SDS011;65160;50.504;3.666;2023-01-04T11:40:11;8.32;;;1.80;;
76344;SDS011;65160;50.504;3.666;2023-01-04T11:42:43;6.93;;;1.90;;
76344;SDS011;65160;50.504;3.666;2023-01-04T11:48:01;6.40;;;1.42;;
76344;SDS011;65160;50.504;3.666;2023-01-04T11:50:34;8.93;;;1.92;;
76344;SDS011;65160;50.504;3.666;2023-01-04T11:53:02;7.32;;;1.70;;
76344;SDS011;65160;50.504;3.666;2023-01-04T11:56:11;8.98;;;1.85;;
76344;SDS011;65160;50.504;3.666;2023-01-04T11:58:41;6.20;;;1.70;;
76344;SDS011;65160;50.504;3.666;2023-01-04T12:01:19;4.78;;;1.70;;
76344;SDS011;65160;50.504;3.666;2023-01-04T12:03:49;5.90;;;1.50;;
76344;SDS011;65160;50.504;3.666;2023-01-04T12:06:19;3.20;;;1.30;;
76344;SDS011;65160;50.504;3.666;2023-01-04T12:08:51;8.63;;;1.60;;
76344;SDS011;65160;50.504;3.666;2023-01-04T12:11:39;4.50;;;1.42;;
76344;SDS011;65160;50.504;3.666;2023-01-04T12:14:08;5.88;;;1.55;;
76344;SDS011;65160;50.504;3.666;2023-01-04T12:19:24;5.45;;;1.90;;
76344;SDS011;65160;50.504;3.666;2023-01-04T12:21:56;5.45;;;1.63;;
76344;SDS011;65160;50.504;3.666;2023-01-04T12:24:25;7.07;;;2.25;;
76344;SDS011;65160;50.504;3.666;2023-01-04T12:26:53;8.00;;;2.42;;
76344;SDS011;65160;50.504;3.666;2023-01-04T12:37:02;4.00;;;2.10;;
76344;SDS011;65160;50.504;3.666;2023-01-04T12:39:42;7.95;;;1.50;;
76344;SDS011;65160;50.504;3.666;2023-01-04T12:50:05;6.40;;;2.30;;
76344;SDS011;65160;50.504;3.666;2023-01-04T12:52:39;5.15;;;1.83;;
76344;SDS011;65160;50.504;3.666;2023-01-04T13:06:03;3.80;;;1.73;;
76344;SDS011;65160;50.504;3.666;2023-01-04T13:08:29;6.18;;;1.70;;
76344;SDS011;65160;50.504;3.666;2023-01-04T13:10:59;3.83;;;1.67;;
76344;SDS011;65160;50.504;3.666;2023-01-04T13:16:08;2.83;;;1.10;;
76344;SDS011;65160;50.504;3.666;2023-01-04T13:18:53;3.78;;;1.45;;
76344;SDS011;65160;50.504;3.666;2023-01-04T13:21:31;4.43;;;1.27;;
76344;SDS011;65160;50.504;3.666;2023-01-04T13:24:03;2.60;;;1.13;;
76344;SDS011;65160;50.504;3.666;2023-01-04T13:26:42;2.67;;;1.20;;
76344;SDS011;65160;50.504;3.666;2023-01-04T13:34:24;3.65;;;1.38;;
76344;SDS011;65160;50.504;3.666;2023-01-04T13:39:45;4.18;;;1.40;;
76344;SDS011;65160;50.504;3.666;2023-01-04T13:42:22;4.18;;;1.63;;
76344;SDS011;65160;50.504;3.666;2023-01-04T13:47:34;5.72;;;2.00;;
76344;SDS011;65160;50.504;3.666;2023-01-04T13:50:02;4.32;;;1.50;;
76344;SDS011;65160;50.504;3.666;2023-01-04T13:52:28;3.65;;;1.63;;
76344;SDS011;65160;50.504;3.666;2023-01-04T13:58:01;4.70;;;1.92;;
76344;SDS011;65160;50.504;3.666;2023-01-04T14:00:30;3.08;;;1.33;;
76344;SDS011;65160;50.504;3.666;2023-01-04T14:03:16;5.68;;;2.00;;
76344;SDS011;65160;50.504;3.666;2023-01-04T14:05:54;5.00;;;1.70;;
76344;SDS011;65160;50.504;3.666;2023-01-04T14:08:30;2.80;;;1.45;;
76344;SDS011;65160;50.504;3.666;2023-01-04T14:11:01;5.35;;;1.85;;
76344;SDS011;65160;50.504;3.666;2023-01-04T14:13:34;3.63;;;1.35;;
76344;SDS011;65160;50.504;3.666;2023-01-04T14:16:12;4.63;;;1.20;;
76344;SDS011;65160;50.504;3.666;2023-01-04T14:18:39;3.55;;;1.17;;
76344;SDS011;65160;50.504;3.666;2023-01-04T14:21:13;6.20;;;1.88;;
76344;SDS011;65160;50.504;3.666;2023-01-04T14:23:40;4.90;;;1.33;;
76344;SDS011;65160;50.504;3.666;2023-01-04T14:26:05;3.85;;;1.13;;
76344;SDS011;65160;50.504;3.666;2023-01-04T14:28:35;7.38;;;3.00;;
76344;SDS011;65160;50.504;3.666;2023-01-04T14:38:35;8.13;;;1.92;;
76344;SDS011;65160;50.504;3.666;2023-01-04T14:43:52;11.25;;;3.38;;
76344;SDS011;65160;50.504;3.666;2023-01-04T14:46:20;13.35;;;3.20;;
76344;SDS011;65160;50.504;3.666;2023-01-04T14:48:47;24.15;;;10.93;;
76344;SDS011;65160;50.504;3.666;2023-01-04T14:51:20;14.50;;;4.78;;
76344;SDS011;65160;50.504;3.666;2023-01-04T14:53:48;21.20;;;10.18;;
76344;SDS011;65160;50.504;3.666;2023-01-04T14:56:15;20.67;;;5.95;;
76344;SDS011;65160;50.504;3.666;2023-01-04T14:58:42;17.40;;;3.72;;
76344;SDS011;65160;50.504;3.666;2023-01-04T15:01:09;25.48;;;4.47;;
76344;SDS011;65160;50.504;3.666;2023-01-04T15:03:36;15.40;;;3.30;;
76344;SDS011;65160;50.504;3.666;2023-01-04T15:06:02;22.23;;;3.67;;
76344;SDS011;65160;50.504;3.666;2023-01-04T15:08:29;22.20;;;4.10;;
76344;SDS011;65160;50.504;3.666;2023-01-04T15:10:55;18.27;;;3.20;;
76344;SDS011;65160;50.504;3.666;2023-01-04T15:13:20;17.70;;;3.33;;
76344;SDS011;65160;50.504;3.666;2023-01-04T15:15:46;15.15;;;3.42;;
76344;SDS011;65160;50.504;3.666;2023-01-04T15:18:11;15.68;;;3.05;;
76344;SDS011;65160;50.504;3.666;2023-01-04T15:20:37;18.92;;;4.63;;
76344;SDS011;65160;50.504;3.666;2023-01-04T15:23:04;19.63;;;6.00;;
76344;SDS011;65160;50.504;3.666;2023-01-04T15:25:30;19.52;;;3.95;;
76344;SDS011;65160;50.504;3.666;2023-01-04T15:27:55;26.20;;;5.78;;
76344;SDS011;65160;50.504;3.666;2023-01-04T15:30:21;14.80;;;4.03;;
76344;SDS011;65160;50.504;3.666;2023-01-04T15:32:47;15.85;;;2.97;;
76344;SDS011;65160;50.504;3.666;2023-01-04T15:35:12;16.75;;;4.28;;
76344;SDS011;65160;50.504;3.666;2023-01-04T15:37:41;21.65;;;4.18;;
76344;SDS011;65160;50.504;3.666;2023-01-04T15:40:10;17.50;;;3.90;;
76344;SDS011;65160;50.504;3.666;2023-01-04T15:42:38;17.83;;;3.90;;
76344;SDS011;65160;50.504;3.666;2023-01-04T15:45:22;22.40;;;5.55;;
76344;SDS011;65160;50.504;3.666;2023-01-04T15:47:49;19.00;;;4.63;;
76344;SDS011;65160;50.504;3.666;2023-01-04T15:50:16;20.13;;;4.03;;
76344;SDS011;65160;50.504;3.666;2023-01-04T15:52:42;17.88;;;3.95;;
76344;SDS011;65160;50.504;3.666;2023-01-04T15:55:08;22.85;;;5.03;;
76344;SDS011;65160;50.504;3.666;2023-01-04T15:57:33;25.00;;;5.10;;
76344;SDS011;65160;50.504;3.666;2023-01-04T15:59:59;28.50;;;8.65;;
76344;SDS011;65160;50.504;3.666;2023-01-04T16:02:24;17.85;;;3.80;;
76344;SDS011;65160;50.504;3.666;2023-01-04T16:04:50;23.27;;;4.88;;
76344;SDS011;65160;50.504;3.666;2023-01-04T16:07:16;16.90;;;5.53;;
76344;SDS011;65160;50.504;3.666;2023-01-04T16:09:42;22.60;;;5.88;;
76344;SDS011;65160;50.504;3.666;2023-01-04T16:12:07;27.30;;;6.03;;
76344;SDS011;65160;50.504;3.666;2023-01-04T16:14:51;17.85;;;4.70;;
76344;SDS011;65160;50.504;3.666;2023-01-04T16:17:17;19.60;;;5.22;;
76344;SDS011;65160;50.504;3.666;2023-01-04T16:19:43;23.38;;;7.15;;
76344;SDS011;65160;50.504;3.666;2023-01-04T16:22:09;20.77;;;5.47;;
76344;SDS011;65160;50.504;3.666;2023-01-04T16:24:34;17.25;;;4.25;;
76344;SDS011;65160;50.504;3.666;2023-01-04T16:27:00;20.45;;;5.10;;
76344;SDS011;65160;50.504;3.666;2023-01-04T16:29:25;16.30;;;4.72;;
76344;SDS011;65160;50.504;3.666;2023-01-04T16:31:51;21.75;;;5.75;;
76344;SDS011;65160;50.504;3.666;2023-01-04T16:34:16;28.05;;;6.75;;
76344;SDS011;65160;50.504;3.666;2023-01-04T16:36:42;32.83;;;10.75;;
76344;SDS011;65160;50.504;3.666;2023-01-04T16:39:07;26.42;;;4.68;;
76344;SDS011;65160;50.504;3.666;2023-01-04T16:41:33;22.23;;;5.53;;
76344;SDS011;65160;50.504;3.666;2023-01-04T16:43:59;26.00;;;5.10;;
76344;SDS011;65160;50.504;3.666;2023-01-04T16:46:26;16.67;;;3.83;;
76344;SDS011;65160;50.504;3.666;2023-01-04T16:48:56;14.40;;;3.90;;
76344;SDS011;65160;50.504;3.666;2023-01-04T16:51:25;20.48;;;4.82;;
76344;SDS011;65160;50.504;3.666;2023-01-04T16:53:53;25.23;;;4.13;;
76344;SDS011;65160;50.504;3.666;2023-01-04T16:56:20;28.00;;;4.80;;
76344;SDS011;65160;50.504;3.666;2023-01-04T16:58:47;20.85;;;4.88;;
76344;SDS011;65160;50.504;3.666;2023-01-04T17:01:14;28.20;;;8.30;;
76344;SDS011;65160;50.504;3.666;2023-01-04T17:03:40;30.58;;;12.85;;
76344;SDS011;65160;50.504;3.666;2023-01-04T17:06:07;24.55;;;4.68;;
76344;SDS011;65160;50.504;3.666;2023-01-04T17:08:35;15.68;;;3.25;;
76344;SDS011;65160;50.504;3.666;2023-01-04T17:11:05;16.27;;;5.10;;
76344;SDS011;65160;50.504;3.666;2023-01-04T17:13:31;21.00;;;5.13;;
76344;SDS011;65160;50.504;3.666;2023-01-04T17:15:58;27.25;;;6.93;;
76344;SDS011;65160;50.504;3.666;2023-01-04T17:18:24;20.10;;;4.40;;